createdAt,value
2019-02-28T00:00:51.897Z,15.07
2019-02-28T00:03:20.474Z,14.87
2019-02-28T00:05:49.146Z,16.53
2019-02-28T00:08:17.793Z,14.33
2019-02-28T00:10:46.413Z,14.80
2019-02-28T00:13:15.051Z,14.83
2019-02-28T00:15:43.689Z,16.43
2019-02-28T00:18:15.217Z,9.63
2019-02-28T00:20:42.412Z,12.90
2019-02-28T00:23:11.307Z,12.57
2019-02-28T00:25:41.531Z,11.27
2019-02-28T00:28:11.643Z,15.60
2019-02-28T00:30:40.743Z,15.63
2019-02-28T00:33:10.060Z,14.20
2019-02-28T00:35:38.698Z,18.40
2019-02-28T00:38:07.247Z,13.97
2019-02-28T00:40:38.542Z,18.63
2019-02-28T00:43:06.033Z,14.57
2019-02-28T00:45:37.220Z,17.63
2019-02-28T00:48:04.929Z,15.73
2019-02-28T00:50:33.748Z,16.70
2019-02-28T00:53:02.356Z,14.57
2019-02-28T00:55:30.959Z,16.60
2019-02-28T00:58:00.570Z,17.77
2019-02-28T01:00:29.368Z,15.73
2019-02-28T01:02:58.197Z,17.57
2019-02-28T01:05:26.764Z,14.90
2019-02-28T01:07:55.691Z,19.30
2019-02-28T01:10:24.621Z,22.97
2019-02-28T01:12:54.581Z,15.00
2019-02-28T01:15:23.133Z,15.83
2019-02-28T01:17:53.339Z,16.53
2019-02-28T01:20:24.836Z,18.13
2019-02-28T01:22:54.958Z,14.43
2019-02-28T01:25:23.554Z,14.63
2019-02-28T01:27:53.040Z,14.17
2019-02-28T01:30:23.918Z,14.93
2019-02-28T01:32:52.469Z,15.43
2019-02-28T01:35:20.968Z,16.13
2019-02-28T01:37:52.423Z,14.93
2019-02-28T01:40:19.712Z,15.10
2019-02-28T01:42:51.182Z,17.10
2019-02-28T01:45:18.596Z,15.30
2019-02-28T01:47:47.186Z,16.07
2019-02-28T01:50:15.666Z,15.60
2019-02-28T01:52:45.902Z,12.90
2019-02-28T01:55:14.719Z,16.17
2019-02-28T01:57:44.395Z,12.47
2019-02-28T02:00:17.686Z,13.50
2019-02-28T02:02:46.175Z,13.27
2019-02-28T02:05:18.125Z,12.93
2019-02-28T02:07:46.908Z,15.03
2019-02-28T02:10:21.721Z,14.73
2019-02-28T02:12:51.286Z,12.97
2019-02-28T02:15:20.361Z,13.53
2019-02-28T02:17:49.083Z,13.27
2019-02-28T02:20:18.060Z,17.07
2019-02-28T02:22:49.472Z,12.67
2019-02-28T02:25:18.042Z,12.07
2019-02-28T02:27:46.592Z,12.37
2019-02-28T02:30:23.801Z,15.13
2019-02-28T02:32:52.425Z,12.03
2019-02-28T02:35:29.884Z,12.93
2019-02-28T02:38:03.389Z,13.53
2019-02-28T02:40:28.650Z,14.20
2019-02-28T02:43:00.123Z,17.43
2019-02-28T02:45:41.816Z,14.17
2019-02-28T02:48:09.638Z,13.07
2019-02-28T02:50:38.196Z,13.17
2019-02-28T02:53:08.644Z,12.97
2019-02-28T02:55:37.186Z,14.77
2019-02-28T02:58:08.883Z,14.20
2019-02-28T03:00:37.477Z,11.23
2019-02-28T03:03:06.494Z,12.33
2019-02-28T03:05:36.842Z,16.00
2019-02-28T03:08:05.401Z,14.07
2019-02-28T03:10:33.938Z,12.50
2019-02-28T03:13:04.914Z,12.87
2019-02-28T03:15:32.691Z,11.83
2019-02-28T03:18:01.242Z,16.60
2019-02-28T03:20:29.809Z,13.20
2019-02-28T03:23:01.966Z,12.83
2019-02-28T03:25:29.404Z,15.40
2019-02-28T03:28:00.867Z,12.60
2019-02-28T03:30:32.744Z,14.17
2019-02-28T03:32:59.619Z,15.13
2019-02-28T03:35:40.162Z,14.93
2019-02-28T03:38:01.983Z,13.30
2019-02-28T03:40:30.528Z,11.77
2019-02-28T03:43:05.355Z,10.97
2019-02-28T03:45:33.880Z,12.10
2019-02-28T03:47:59.843Z,12.40
2019-02-28T03:50:30.094Z,10.80
2019-02-28T03:52:58.650Z,10.20
2019-02-28T03:55:27.512Z,19.70
2019-02-28T03:57:56.233Z,10.60
2019-02-28T04:00:32.343Z,13.07
2019-02-28T04:02:58.679Z,14.27
2019-02-28T04:05:28.005Z,13.43
2019-02-28T04:07:55.771Z,11.70
2019-02-28T04:10:24.333Z,12.37
2019-02-28T04:12:55.918Z,13.17
2019-02-28T04:15:24.764Z,13.93
2019-02-28T04:17:53.326Z,12.07
2019-02-28T04:20:21.874Z,12.17
2019-02-28T04:22:58.822Z,11.83
2019-02-28T04:25:24.482Z,11.27
2019-02-28T04:27:53.132Z,19.60
2019-02-28T04:30:21.708Z,12.57
2019-02-28T04:32:50.262Z,10.53
2019-02-28T04:35:24.281Z,13.27
2019-02-28T04:37:49.019Z,15.80
2019-02-28T04:40:17.570Z,12.10
2019-02-28T04:42:46.208Z,12.40
2019-02-28T04:45:14.996Z,11.27
2019-02-28T04:47:43.763Z,13.13
2019-02-28T04:50:13.753Z,11.77
2019-02-28T04:52:48.061Z,16.93
2019-02-28T04:55:15.540Z,13.60
2019-02-28T04:57:46.639Z,12.17
2019-02-28T05:00:19.038Z,13.07
2019-02-28T05:02:47.588Z,13.30
2019-02-28T05:05:17.312Z,14.40
2019-02-28T05:07:45.880Z,12.93
2019-02-28T05:10:14.496Z,12.80
2019-02-28T05:12:42.980Z,15.23
2019-02-28T05:15:14.879Z,14.10
2019-02-28T05:17:44.560Z,12.70
2019-02-28T05:20:15.696Z,10.07
2019-02-28T05:22:45.772Z,13.53
2019-02-28T05:25:17.621Z,15.67
2019-02-28T05:27:46.007Z,12.00
2019-02-28T05:30:19.438Z,15.20
2019-02-28T05:32:47.955Z,12.40
2019-02-28T05:35:16.614Z,15.27
2019-02-28T05:37:48.144Z,16.67
2019-02-28T05:40:15.940Z,14.57
2019-02-28T05:42:44.602Z,22.43
2019-02-28T05:45:16.549Z,13.27
2019-02-28T05:47:47.778Z,16.33
2019-02-28T05:50:17.303Z,17.33
2019-02-28T05:52:45.968Z,15.47
2019-02-28T05:55:14.568Z,17.07
2019-02-28T05:57:44.940Z,17.53
2019-02-28T06:00:19.145Z,14.10
2019-02-28T06:02:49.267Z,18.67
2019-02-28T06:05:17.808Z,15.80
2019-02-28T06:07:46.542Z,12.93
2019-02-28T06:10:26.498Z,14.77
2019-02-28T06:12:59.324Z,13.37
2019-02-28T06:15:34.174Z,14.90
2019-02-28T06:18:03.148Z,13.60
2019-02-28T06:20:31.718Z,16.53
2019-02-28T06:23:03.092Z,14.67
2019-02-28T06:25:35.928Z,16.00
2019-02-28T06:28:05.892Z,13.17
2019-02-28T06:30:34.412Z,22.03
2019-02-28T06:33:02.960Z,19.33
2019-02-28T06:35:31.545Z,14.53
2019-02-28T06:38:01.556Z,16.63
2019-02-28T06:40:32.941Z,17.60
2019-02-28T06:43:00.338Z,18.33
2019-02-28T06:45:28.898Z,18.07
2019-02-28T06:47:59.508Z,16.53
2019-02-28T06:50:30.007Z,21.40
2019-02-28T06:52:59.242Z,17.90
2019-02-28T06:56:04.156Z,20.33
2019-02-28T06:58:37.070Z,21.87
2019-02-28T07:01:08.822Z,22.83
2019-02-28T07:03:40.092Z,17.27
2019-02-28T07:06:08.640Z,21.60
2019-02-28T07:08:39.928Z,25.03
2019-02-28T07:11:14.215Z,19.60
2019-02-28T07:13:42.792Z,22.10
2019-02-28T07:16:11.270Z,18.17
2019-02-28T07:18:39.864Z,18.50
2019-02-28T07:21:08.714Z,19.70
2019-02-28T07:23:37.288Z,20.97
2019-02-28T07:26:05.802Z,18.50
2019-02-28T07:28:37.274Z,15.13
2019-02-28T07:31:04.792Z,18.13
2019-02-28T07:33:33.337Z,19.17
2019-02-28T07:36:01.897Z,20.97
2019-02-28T07:38:30.528Z,22.37
2019-02-28T07:40:59.241Z,27.27
2019-02-28T07:43:27.791Z,16.43
2019-02-28T07:45:56.278Z,23.93
2019-02-28T07:48:28.583Z,18.97
2019-02-28T07:50:55.079Z,18.70
2019-02-28T07:53:23.625Z,24.23
2019-02-28T07:55:52.166Z,16.73
2019-02-28T07:58:22.291Z,20.67
2019-02-28T08:00:52.711Z,18.30
2019-02-28T08:03:26.935Z,24.50
2019-02-28T08:06:04.480Z,22.13
2019-02-28T08:08:30.405Z,17.70
2019-02-28T08:10:59.013Z,16.70
2019-02-28T08:13:27.598Z,19.13
2019-02-28T08:15:56.850Z,19.90
2019-02-28T08:18:26.369Z,19.50
2019-02-28T08:20:55.061Z,17.17
2019-02-28T08:23:23.605Z,21.37
2019-02-28T08:25:55.109Z,17.97
2019-02-28T08:28:24.131Z,16.83
2019-02-28T08:30:55.186Z,18.23
2019-02-28T08:33:22.906Z,19.00
2019-02-28T08:35:53.083Z,19.87
2019-02-28T08:38:21.700Z,18.67
2019-02-28T08:40:53.183Z,18.87
2019-02-28T08:43:27.067Z,21.27
2019-02-28T08:45:52.326Z,25.60
2019-02-28T08:48:22.127Z,24.67
2019-02-28T08:50:52.626Z,22.20
2019-02-28T08:53:20.860Z,25.73
2019-02-28T08:55:49.409Z,20.37
2019-02-28T08:58:18.273Z,24.93
2019-02-28T09:00:49.067Z,22.67
2019-02-28T09:03:19.952Z,25.07
2019-02-28T09:05:48.509Z,26.73
2019-02-28T09:08:17.064Z,26.47
2019-02-28T09:10:47.001Z,25.53
2019-02-28T09:13:15.913Z,27.23
2019-02-28T09:15:47.453Z,24.80
2019-02-28T09:18:16.039Z,29.50
2019-02-28T09:20:45.241Z,23.67
2019-02-28T09:23:15.443Z,26.03
2019-02-28T09:25:44.970Z,29.20
2019-02-28T09:28:13.853Z,25.63
2019-02-28T09:30:50.042Z,27.27
2019-02-28T09:33:19.304Z,25.33
2019-02-28T09:35:48.837Z,26.23
2019-02-28T09:38:17.376Z,29.50
2019-02-28T09:40:45.980Z,30.23
2019-02-28T09:43:14.854Z,27.90
2019-02-28T09:45:43.409Z,26.83
2019-02-28T09:48:12.056Z,33.70
2019-02-28T09:50:40.610Z,32.50
2019-02-28T09:53:09.138Z,30.57
2019-02-28T09:55:39.677Z,30.77
2019-02-28T09:58:07.999Z,32.37
2019-02-28T10:00:37.151Z,32.87
2019-02-28T10:03:06.838Z,28.17
2019-02-28T10:05:38.975Z,29.40
2019-02-28T10:08:07.235Z,30.93
2019-02-28T10:10:35.720Z,30.40
2019-02-28T10:13:04.326Z,31.73
2019-02-28T10:15:32.949Z,33.37
2019-02-28T10:18:04.113Z,30.47
2019-02-28T10:20:34.597Z,32.60
2019-02-28T10:23:03.073Z,30.50
2019-02-28T10:25:31.771Z,26.77
2019-02-28T10:28:02.589Z,32.43
2019-02-28T10:30:35.147Z,29.07
2019-02-28T10:33:03.756Z,30.53
2019-02-28T10:35:33.492Z,29.20
2019-02-28T10:38:02.536Z,31.27
2019-02-28T10:40:31.530Z,32.70
2019-02-28T10:43:00.132Z,31.20
2019-02-28T10:45:28.924Z,28.43
2019-02-28T10:48:02.892Z,29.63
2019-02-28T10:50:33.687Z,33.33
2019-02-28T10:53:05.609Z,27.40
2019-02-28T10:55:43.258Z,30.80
2019-02-28T10:58:12.437Z,27.87
2019-02-28T11:00:50.182Z,36.23
2019-02-28T11:03:19.146Z,28.97
2019-02-28T11:05:53.027Z,29.47
2019-02-28T11:08:19.326Z,33.47
2019-02-28T11:10:52.246Z,31.83
2019-02-28T11:13:24.183Z,29.13
2019-02-28T11:16:01.746Z,26.50
2019-02-28T11:18:36.410Z,27.50
2019-02-28T11:21:04.804Z,32.27
2019-02-28T11:23:37.985Z,29.00
2019-02-28T11:26:09.510Z,31.60
2019-02-28T11:28:36.976Z,32.13
2019-02-28T11:31:05.790Z,29.43
2019-02-28T11:33:36.475Z,26.70
2019-02-28T11:36:04.934Z,34.73
2019-02-28T11:38:33.525Z,33.87
2019-02-28T11:41:02.098Z,32.83
2019-02-28T11:43:37.545Z,30.93
2019-02-28T11:46:03.092Z,27.13
2019-02-28T11:48:31.683Z,30.27
2019-02-28T11:51:00.269Z,33.93
2019-02-28T11:53:28.817Z,32.27
2019-02-28T11:55:57.387Z,28.40
2019-02-28T11:58:26.912Z,24.93
2019-02-28T12:00:55.532Z,27.93
2019-02-28T12:03:24.087Z,27.70
2019-02-28T12:05:54.286Z,29.13
2019-02-28T12:08:24.402Z,26.60
2019-02-28T12:10:52.955Z,25.70
2019-02-28T12:13:22.389Z,25.50
2019-02-28T12:15:52.117Z,27.50
2019-02-28T12:18:20.762Z,30.60
2019-02-28T12:20:49.649Z,29.37
2019-02-28T12:23:22.973Z,28.77
2019-02-28T12:25:50.438Z,23.57
2019-02-28T12:28:20.255Z,26.57
2019-02-28T12:30:49.052Z,24.03
2019-02-28T12:33:18.996Z,29.93
2019-02-28T12:35:51.962Z,27.03
2019-02-28T12:38:20.925Z,27.43
2019-02-28T12:40:49.764Z,28.77
2019-02-28T12:43:18.727Z,24.03
2019-02-28T12:45:47.653Z,29.90
2019-02-28T12:48:16.270Z,38.53
2019-02-28T12:50:52.954Z,25.97
2019-02-28T12:53:25.287Z,23.57
2019-02-28T12:55:52.123Z,24.53
2019-02-28T12:58:20.741Z,25.37
2019-02-28T13:00:50.962Z,23.10
2019-02-28T13:03:20.871Z,24.17
2019-02-28T13:05:49.739Z,20.63
2019-02-28T13:08:18.363Z,21.30
2019-02-28T13:10:51.270Z,22.73
2019-02-28T13:13:21.479Z,21.00
2019-02-28T13:15:50.239Z,21.03
2019-02-28T13:18:18.764Z,28.07
2019-02-28T13:20:47.403Z,20.50
2019-02-28T13:23:17.185Z,27.20
2019-02-28T13:25:59.126Z,21.47
2019-02-28T13:28:24.134Z,21.17
2019-02-28T13:30:53.664Z,26.23
2019-02-28T13:33:32.527Z,22.27
2019-02-28T13:36:07.621Z,25.60
2019-02-28T13:38:38.941Z,22.57
2019-02-28T13:41:07.567Z,22.97
2019-02-28T13:43:36.200Z,25.53
2019-02-28T13:46:04.913Z,26.90
2019-02-28T13:48:34.760Z,23.93
2019-02-28T13:51:08.241Z,27.17
2019-02-28T13:53:34.847Z,28.73
2019-02-28T13:56:05.014Z,21.80
2019-02-28T13:58:33.757Z,28.43
2019-02-28T14:01:02.318Z,29.40
2019-02-28T14:03:37.986Z,26.83
2019-02-28T14:06:07.546Z,23.57
2019-02-28T14:08:36.496Z,22.03
2019-02-28T14:11:15.180Z,27.50
2019-02-28T14:13:49.401Z,24.10
2019-02-28T14:16:26.359Z,31.13
2019-02-28T14:18:54.531Z,26.83
2019-02-28T14:21:22.716Z,27.03
2019-02-28T14:23:52.411Z,23.37
2019-02-28T14:26:21.570Z,25.13
2019-02-28T14:28:50.135Z,21.43
2019-02-28T14:31:20.531Z,27.47
2019-02-28T14:33:51.507Z,20.97
2019-02-28T14:36:19.441Z,23.47
2019-02-28T14:38:48.002Z,24.93
2019-02-28T14:41:16.579Z,27.63
2019-02-28T14:43:45.181Z,27.90
2019-02-28T14:46:15.177Z,25.10
2019-02-28T14:48:43.965Z,30.93
2019-02-28T14:51:12.514Z,24.90
2019-02-28T14:53:41.243Z,32.17
2019-02-28T14:56:10.147Z,28.20
2019-02-28T14:58:38.714Z,24.23
2019-02-28T15:01:07.424Z,24.60
2019-02-28T15:03:36.797Z,26.53
2019-02-28T15:06:05.453Z,29.93
2019-02-28T15:08:34.067Z,24.93
2019-02-28T15:11:02.801Z,23.83
2019-02-28T15:13:33.450Z,30.03
2019-02-28T15:16:04.610Z,24.57
2019-02-28T15:18:33.451Z,27.23
2019-02-28T15:21:04.468Z,24.13
2019-02-28T15:23:34.269Z,24.87
2019-02-28T15:26:02.435Z,25.37
2019-02-28T15:28:37.020Z,26.20
2019-02-28T15:31:01.277Z,25.47
2019-02-28T15:33:32.357Z,27.93
2019-02-28T15:36:00.916Z,22.37
2019-02-28T15:38:29.560Z,20.07
2019-02-28T15:40:58.786Z,22.43
2019-02-28T15:43:27.994Z,26.17
2019-02-28T15:45:56.578Z,24.43
2019-02-28T15:48:25.134Z,24.67
2019-02-28T15:50:54.616Z,22.03
2019-02-28T15:53:23.258Z,25.20
2019-02-28T15:55:52.002Z,20.47
2019-02-28T15:58:20.559Z,24.80
2019-02-28T16:00:53.683Z,23.27
2019-02-28T16:03:22.309Z,22.43
2019-02-28T16:05:52.659Z,23.57
2019-02-28T16:08:36.847Z,21.73
2019-02-28T16:11:07.391Z,23.60
2019-02-28T16:13:36.284Z,24.13
2019-02-28T16:16:04.913Z,20.73
2019-02-28T16:18:35.001Z,23.03
2019-02-28T16:21:07.182Z,20.27
2019-02-28T16:23:41.366Z,26.33
2019-02-28T16:26:12.910Z,23.53
2019-02-28T16:28:42.602Z,24.00
2019-02-28T16:31:11.797Z,20.43
2019-02-28T16:33:40.377Z,23.57
2019-02-28T16:36:08.941Z,24.23
2019-02-28T16:38:37.548Z,26.40
2019-02-28T16:41:06.153Z,23.10
2019-02-28T16:43:36.336Z,23.07
2019-02-28T16:46:07.905Z,22.27
2019-02-28T16:48:40.838Z,25.03
2019-02-28T16:51:09.576Z,25.90
2019-02-28T16:53:48.987Z,27.67
2019-02-28T16:56:37.581Z,28.57
2019-02-28T16:59:08.992Z,25.37
2019-02-28T17:01:39.367Z,23.40
2019-02-28T17:04:08.039Z,25.93
2019-02-28T17:06:45.074Z,23.13
2019-02-28T17:09:15.436Z,28.47
2019-02-28T17:11:45.629Z,27.20
2019-02-28T17:14:15.820Z,28.60
2019-02-28T17:16:46.168Z,23.13
2019-02-28T17:19:14.711Z,28.23
2019-02-28T17:21:43.296Z,27.97
2019-02-28T17:24:12.167Z,27.90
2019-02-28T17:26:57.685Z,25.53
2019-02-28T17:29:35.077Z,28.83
2019-02-28T17:32:09.275Z,25.47
2019-02-28T17:34:38.164Z,26.83
2019-02-28T17:37:10.375Z,27.27
2019-02-28T17:39:42.854Z,24.23
2019-02-28T17:42:15.043Z,27.57
2019-02-28T17:44:46.008Z,25.23
2019-02-28T17:47:25.729Z,26.80
2019-02-28T17:50:23.451Z,23.43
2019-02-28T17:53:11.563Z,25.13
2019-02-28T17:56:03.914Z,24.70
2019-02-28T17:59:05.253Z,26.10
2019-02-28T18:01:46.918Z,27.13
2019-02-28T18:04:36.391Z,26.77
2019-02-28T18:07:11.876Z,26.40
2019-02-28T18:09:48.203Z,22.97
2019-02-28T18:12:33.526Z,25.40
2019-02-28T18:15:09.764Z,28.03
2019-02-28T18:17:41.418Z,24.70
2019-02-28T18:20:29.002Z,28.03
2019-02-28T18:23:17.797Z,29.23
2019-02-28T18:25:57.046Z,31.27
2019-02-28T18:28:51.042Z,26.50
2019-02-28T18:31:22.186Z,29.03
2019-02-28T18:33:56.052Z,29.37
2019-02-28T18:36:33.441Z,26.67
2019-02-28T18:39:02.093Z,33.77
2019-02-28T18:41:38.946Z,31.37
2019-02-28T18:44:09.638Z,26.80
2019-02-28T18:46:39.461Z,27.40
2019-02-28T18:49:08.017Z,22.87
2019-02-28T18:51:36.619Z,29.33
2019-02-28T18:54:05.320Z,26.80
2019-02-28T18:56:33.957Z,25.87
2019-02-28T18:59:02.513Z,22.93
2019-02-28T19:01:31.137Z,25.00
2019-02-28T19:04:00.500Z,30.43
2019-02-28T19:06:29.319Z,21.10
2019-02-28T19:08:57.878Z,25.00
2019-02-28T19:11:26.441Z,26.67
2019-02-28T19:13:55.000Z,24.57
2019-02-28T19:16:23.567Z,25.03
2019-02-28T19:18:52.249Z,26.27
2019-02-28T19:21:22.456Z,21.33
2019-02-28T19:23:50.981Z,23.23
2019-02-28T19:26:19.629Z,24.67
2019-02-28T19:28:48.192Z,26.97
2019-02-28T19:31:16.757Z,24.80
2019-02-28T19:33:45.351Z,28.13
2019-02-28T19:36:14.241Z,29.37
2019-02-28T19:38:43.542Z,27.73
2019-02-28T19:41:12.143Z,24.97
2019-02-28T19:43:40.785Z,24.93
2019-02-28T19:46:13.653Z,23.10
2019-02-28T19:48:42.436Z,27.77
2019-02-28T19:51:11.018Z,25.87
2019-02-28T19:54:01.883Z,22.73
2019-02-28T19:56:32.116Z,18.77
2019-02-28T19:59:00.740Z,19.57
2019-02-28T20:01:29.388Z,15.57
2019-02-28T20:03:58.104Z,18.07
2019-02-28T20:06:27.662Z,18.93
2019-02-28T20:08:56.224Z,14.30
2019-02-28T20:11:28.645Z,13.90
2019-02-28T20:13:57.204Z,8.87
2019-02-28T20:16:25.908Z,12.23
2019-02-28T20:18:56.033Z,11.37
2019-02-28T20:21:26.050Z,13.73
2019-02-28T20:23:54.710Z,11.33
2019-02-28T20:26:23.649Z,16.57
2019-02-28T20:28:52.216Z,11.33
2019-02-28T20:31:21.531Z,13.17
2019-02-28T20:33:55.273Z,15.83
2019-02-28T20:36:31.742Z,12.93
2019-02-28T20:38:59.454Z,14.50
2019-02-28T20:41:30.551Z,11.13
2019-02-28T20:43:59.125Z,11.00
2019-02-28T20:46:27.754Z,12.20
2019-02-28T20:49:02.372Z,8.33
2019-02-28T20:51:30.941Z,10.20
2019-02-28T20:53:59.497Z,12.90
2019-02-28T20:56:28.294Z,11.13
2019-02-28T20:58:56.957Z,9.87
2019-02-28T21:01:27.230Z,9.87
2019-02-28T21:03:56.712Z,13.63
2019-02-28T21:06:28.402Z,10.40
2019-02-28T21:08:58.651Z,7.57
2019-02-28T21:11:27.192Z,10.57
2019-02-28T21:13:55.798Z,9.83
2019-02-28T21:16:24.366Z,9.87
2019-02-28T21:18:53.105Z,10.63
2019-02-28T21:21:21.678Z,7.80
2019-02-28T21:23:51.127Z,13.57
2019-02-28T21:26:19.705Z,9.63
2019-02-28T21:28:48.248Z,10.03
2019-02-28T21:31:18.676Z,7.83
2019-02-28T21:33:51.604Z,13.30
2019-02-28T21:36:20.230Z,12.93
2019-02-28T21:38:50.322Z,10.00
2019-02-28T21:41:20.443Z,10.13
2019-02-28T21:43:48.997Z,12.33
2019-02-28T21:46:19.438Z,10.33
2019-02-28T21:48:48.004Z,7.50
2019-02-28T21:51:16.565Z,10.67
2019-02-28T21:53:45.120Z,9.10
2019-02-28T21:56:13.694Z,7.83
2019-02-28T21:58:42.808Z,12.73
2019-02-28T22:01:11.369Z,11.03
2019-02-28T22:03:40.632Z,7.30
2019-02-28T22:06:09.102Z,10.00
2019-02-28T22:08:40.291Z,9.83
2019-02-28T22:11:09.804Z,8.47
2019-02-28T22:13:38.408Z,10.37
2019-02-28T22:16:07.231Z,8.90
2019-02-28T22:18:35.819Z,10.70
2019-02-28T22:21:04.493Z,12.20
2019-02-28T22:23:33.031Z,11.40
2019-02-28T22:26:07.972Z,12.13
2019-02-28T22:28:36.746Z,14.03
2019-02-28T22:31:23.237Z,11.10
2019-02-28T22:33:53.417Z,14.33
2019-02-28T22:36:23.675Z,12.50
2019-02-28T22:38:52.276Z,16.00
2019-02-28T22:41:20.905Z,14.13
2019-02-28T22:43:49.462Z,14.13
2019-02-28T22:46:18.096Z,17.10
2019-02-28T22:48:46.750Z,16.47
2019-02-28T22:51:15.263Z,19.87
2019-02-28T22:53:44.129Z,22.10
2019-02-28T22:56:16.806Z,16.70
2019-02-28T22:58:46.238Z,14.80
2019-02-28T23:01:17.882Z,16.47
2019-02-28T23:03:46.855Z,19.80
2019-02-28T23:06:15.433Z,15.73
2019-02-28T23:08:45.794Z,19.87
2019-02-28T23:11:14.862Z,20.27
2019-02-28T23:13:44.427Z,17.23
2019-02-28T23:16:14.607Z,12.67
2019-02-28T23:18:43.089Z,18.03
2019-02-28T23:21:11.632Z,18.70
2019-02-28T23:23:40.199Z,14.83
2019-02-28T23:26:13.130Z,14.30
2019-02-28T23:28:51.794Z,14.70
2019-02-28T23:31:29.569Z,10.60
2019-02-28T23:34:04.631Z,16.87
2019-02-28T23:36:33.571Z,11.57
2019-02-28T23:39:05.485Z,15.67
2019-02-28T23:41:36.726Z,11.17
2019-02-28T23:44:05.411Z,13.97
2019-02-28T23:46:34.450Z,10.73
2019-02-28T23:49:03.111Z,13.50
2019-02-28T23:51:37.467Z,12.67
2019-02-28T23:54:07.164Z,13.83
2019-02-28T23:56:36.549Z,10.27
2019-02-28T23:59:08.207Z,10.77
